Time;durP1;ratioP1;P1;durP2;ratioP2;P2;SDS_P1;SDS_P2;PMS_P1;PMS_P2;Temp;Humidity;BMP_temperature;BMP_pressure;BME280_temperature;BME280_humidity;BME280_pressure;Samples;Min_cycle;Max_cycle;Signal;HPM_P1;HPM_P2
2023/07/06 00:00:49;;;;;;;1.77;1.60;;;;;19.20;101345.00;;;;5005163;28;20201;-77
2023/07/06 00:03:16;;;;;;;2.40;1.88;;;;;19.20;101344.00;;;;4999961;28;20197;-76
2023/07/06 00:05:45;;;;;;;2.65;1.92;;;;;19.20;101346.00;;;;5007224;28;20201;-76
2023/07/06 00:08:12;;;;;;;2.90;1.80;;;;;19.20;101356.00;;;;5004434;28;20240;-76
2023/07/06 00:10:40;;;;;;;2.67;1.73;;;;;19.20;101347.00;;;;5005531;28;20207;-76
2023/07/06 00:13:07;;;;;;;3.15;1.80;;;;;19.30;101358.00;;;;5007233;28;20706;-76
2023/07/06 00:15:35;;;;;;;2.28;2.08;;;;;19.30;101358.00;;;;5007343;28;20260;-76
2023/07/06 00:18:03;;;;;;;2.35;1.85;;;;;19.30;101367.00;;;;4999608;28;20206;-76
2023/07/06 00:20:32;;;;;;;2.22;1.95;;;;;19.30;101360.00;;;;5002431;28;20196;-76
2023/07/06 00:23:00;;;;;;;1.80;1.52;;;;;19.30;101356.00;;;;5005346;28;20197;-76
2023/07/06 00:25:28;;;;;;;3.15;2.38;;;;;19.30;101365.00;;;;5004152;28;20209;-76
2023/07/06 00:27:58;;;;;;;3.28;1.70;;;;;19.30;101361.00;;;;4999737;28;20216;-76
2023/07/06 00:30:40;;;;;;;3.10;1.92;;;;;19.30;101351.00;;;;5006170;28;20193;-76
2023/07/06 00:33:08;;;;;;;4.30;1.90;;;;;19.30;101356.00;;;;5006957;28;20271;-76
2023/07/06 00:35:36;;;;;;;2.92;2.17;;;;;19.30;101351.00;;;;5006351;28;20421;-76
2023/07/06 00:38:09;;;;;;;2.30;2.05;;;;;19.30;101352.00;;;;5008575;28;20863;-76
2023/07/06 00:40:39;;;;;;;3.40;2.35;;;;;19.40;101350.00;;;;5008127;28;20197;-76
2023/07/06 00:43:09;;;;;;;2.38;2.00;;;;;19.40;101349.00;;;;5008195;28;20570;-76
2023/07/06 00:45:37;;;;;;;3.42;1.92;;;;;19.40;101348.00;;;;5010380;28;20209;-76
2023/07/06 00:48:11;;;;;;;2.83;2.10;;;;;19.40;101347.00;;;;5010592;28;20220;-76
2023/07/06 00:50:39;;;;;;;3.20;2.60;;;;;19.40;101357.00;;;;5012417;28;20209;-76
2023/07/06 00:53:12;;;;;;;2.60;2.40;;;;;19.30;101347.00;;;;5001026;28;20212;-76
2023/07/06 00:55:41;;;;;;;3.00;2.30;;;;;19.40;101350.00;;;;5005693;28;20288;-76
2023/07/06 00:58:14;;;;;;;3.38;2.38;;;;;19.30;101347.00;;;;5009022;28;20267;-76
2023/07/06 01:00:44;;;;;;;2.95;2.00;;;;;19.40;101356.00;;;;5010252;28;20201;-77
2023/07/06 01:03:12;;;;;;;4.70;2.03;;;;;19.40;101352.00;;;;5010401;28;20566;-76
2023/07/06 01:05:41;;;;;;;3.33;2.40;;;;;19.30;101357.00;;;;5008666;28;20211;-76
2023/07/06 01:08:14;;;;;;;3.83;2.33;;;;;19.30;101358.00;;;;5008776;28;20883;-76
2023/07/06 01:10:43;;;;;;;5.63;2.05;;;;;19.30;101357.00;;;;5002914;28;20201;-76
2023/07/06 01:13:10;;;;;;;2.75;2.20;;;;;19.30;101351.00;;;;5007465;28;20808;-76
2023/07/06 01:15:44;;;;;;;3.28;2.10;;;;;19.30;101352.00;;;;5010351;28;20201;-76
2023/07/06 01:18:19;;;;;;;4.22;2.35;;;;;19.20;101359.00;;;;5007456;28;20193;-76
2023/07/06 01:20:53;;;;;;;3.78;2.20;;;;;19.30;101348.00;;;;5003844;28;20284;-77
2023/07/06 01:24:02;;;;;;;2.58;2.00;;;;;19.10;101356.00;;;;5008499;28;20196;-76
2023/07/06 01:26:57;;;;;;;2.67;1.88;;;;;19.20;101350.00;;;;5003872;28;20198;-76
2023/07/06 01:29:57;;;;;;;2.75;2.00;;;;;19.10;101356.00;;;;5009131;28;20192;-76
2023/07/06 01:32:27;;;;;;;4.45;2.53;;;;;19.20;101355.00;;;;5010200;28;20598;-77
2023/07/06 01:35:01;;;;;;;2.33;2.00;;;;;19.20;101351.00;;;;5010405;28;20201;-76
2023/07/06 01:37:35;;;;;;;3.72;2.30;;;;;19.20;101343.00;;;;5010251;28;20286;-76
2023/07/06 01:40:09;;;;;;;2.55;2.08;;;;;19.20;101346.00;;;;5008904;28;20193;-76
2023/07/06 01:42:38;;;;;;;2.85;2.30;;;;;19.30;101345.00;;;;5010335;28;20221;-76
2023/07/06 01:45:08;;;;;;;4.45;2.90;;;;;19.20;101352.00;;;;5002319;28;20208;-76
2023/07/06 01:47:40;;;;;;;4.75;2.58;;;;;19.20;101349.00;;;;5007087;28;20235;-76
2023/07/06 01:50:10;;;;;;;3.55;2.17;;;;;19.30;101347.00;;;;5009408;28;20200;-76
2023/07/06 01:53:00;;;;;;;4.05;2.20;;;;;19.20;101346.00;;;;5007353;28;20201;-76
2023/07/06 01:55:31;;;;;;;3.15;2.15;;;;;19.30;101345.00;;;;5008448;28;20200;-77
2023/07/06 01:58:07;;;;;;;5.25;3.42;;;;;19.30;101349.00;;;;5006340;28;20193;-77
2023/07/06 02:00:37;;;;;;;2.80;2.53;;;;;19.30;101344.00;;;;5002660;28;20618;-76
2023/07/06 02:03:07;;;;;;;3.20;2.67;;;;;19.30;101349.00;;;;5005916;28;20205;-76
2023/07/06 02:05:37;;;;;;;4.40;2.60;;;;;19.40;101346.00;;;;5008432;28;20204;-76
2023/07/06 02:08:07;;;;;;;3.85;2.40;;;;;19.40;101346.00;;;;5009202;28;20229;-76
2023/07/06 02:10:34;;;;;;;3.25;2.40;;;;;19.40;101345.00;;;;5010782;28;20203;-76
2023/07/06 02:13:03;;;;;;;3.58;2.17;;;;;19.40;101345.00;;;;5009677;28;20305;-76
2023/07/06 02:15:31;;;;;;;3.00;2.15;;;;;19.40;101341.00;;;;5008268;28;20197;-76
2023/07/06 02:17:58;;;;;;;3.63;2.53;;;;;19.50;101339.00;;;;5008612;28;20205;-76
2023/07/06 02:20:27;;;;;;;3.00;2.70;;;;;19.50;101343.00;;;;5008706;28;20212;-76
2023/07/06 02:22:54;;;;;;;3.65;2.60;;;;;19.50;101339.00;;;;5008310;28;20201;-76
2023/07/06 02:25:22;;;;;;;5.80;2.42;;;;;19.50;101342.00;;;;5010309;28;20194;-76
2023/07/06 02:27:49;;;;;;;6.82;2.85;;;;;19.50;101334.00;;;;5005990;28;20310;-76
2023/07/06 02:30:17;;;;;;;4.30;2.70;;;;;19.60;101339.00;;;;5007660;28;20205;-76
2023/07/06 02:32:46;;;;;;;6.22;2.53;;;;;19.60;101344.00;;;;5007576;28;20300;-76
2023/07/06 02:35:13;;;;;;;8.27;3.33;;;;;19.60;101346.00;;;;4999842;28;20201;-76
2023/07/06 02:37:43;;;;;;;2.78;2.25;;;;;19.60;101341.00;;;;5009909;28;20208;-76
2023/07/06 02:40:12;;;;;;;3.83;2.42;;;;;19.60;101348.00;;;;5009777;28;20200;-76
2023/07/06 02:42:40;;;;;;;4.07;2.60;;;;;19.60;101350.00;;;;5009896;28;20292;-76
2023/07/06 02:45:09;;;;;;;4.03;2.33;;;;;19.60;101356.00;;;;5009666;28;20279;-76
2023/07/06 02:47:37;;;;;;;3.55;2.90;;;;;19.60;101352.00;;;;5009812;28;20295;-76
2023/07/06 02:50:07;;;;;;;4.22;2.17;;;;;19.60;101349.00;;;;5007532;28;20248;-76
2023/07/06 02:52:34;;;;;;;2.95;1.88;;;;;19.70;101364.00;;;;5006735;28;20251;-76
2023/07/06 02:55:03;;;;;;;3.15;2.35;;;;;19.60;101349.00;;;;5008902;28;20200;-76
2023/07/06 02:57:31;;;;;;;2.25;1.90;;;;;19.70;101357.00;;;;5009884;28;20212;-76
2023/07/06 02:59:59;;;;;;;2.17;1.98;;;;;19.70;101358.00;;;;5006146;28;20259;-76
2023/07/06 03:02:26;;;;;;;3.22;2.33;;;;;19.70;101362.00;;;;5001652;28;20201;-76
2023/07/06 03:04:53;;;;;;;2.78;2.00;;;;;19.70;101359.00;;;;5007784;28;20193;-77
2023/07/06 03:07:23;;;;;;;3.80;2.40;;;;;19.70;101359.00;;;;5007575;28;20232;-76
2023/07/06 03:09:50;;;;;;;3.40;2.55;;;;;19.70;101356.00;;;;4999833;28;20607;-77
2023/07/06 03:12:19;;;;;;;5.53;2.53;;;;;19.70;101368.00;;;;5008349;28;20216;-75
2023/07/06 03:14:47;;;;;;;6.32;2.92;;;;;19.70;101367.00;;;;5009249;28;20682;-76
2023/07/06 03:17:15;;;;;;;12.10;2.33;;;;;19.70;101367.00;;;;5007893;28;20228;-76
2023/07/06 03:19:42;;;;;;;5.57;2.60;;;;;19.70;101364.00;;;;5007439;28;20254;-76
2023/07/06 03:22:10;;;;;;;6.88;2.90;;;;;19.70;101365.00;;;;5004352;28;20200;-74
2023/07/06 03:24:38;;;;;;;5.47;2.38;;;;;19.70;101363.00;;;;4997410;28;20213;-75
2023/07/06 03:27:06;;;;;;;2.58;2.38;;;;;19.70;101365.00;;;;4994044;28;20205;-75
2023/07/06 03:29:35;;;;;;;4.32;2.40;;;;;19.70;101370.00;;;;5008593;28;20182;-74
2023/07/06 03:32:03;;;;;;;3.35;2.20;;;;;19.70;101368.00;;;;5006850;28;20755;-74
2023/07/06 03:34:31;;;;;;;5.25;2.15;;;;;19.70;101364.00;;;;5007275;28;20201;-75
2023/07/06 03:36:58;;;;;;;3.53;2.38;;;;;19.70;101369.00;;;;5007097;28;20201;-75
2023/07/06 03:39:26;;;;;;;4.50;2.47;;;;;19.70;101369.00;;;;4999842;28;20204;-74
2023/07/06 03:41:54;;;;;;;3.53;2.55;;;;;19.80;101374.00;;;;5004140;28;20205;-75
2023/07/06 03:44:24;;;;;;;3.20;2.85;;;;;19.80;101373.00;;;;5000749;28;20196;-74
2023/07/06 03:46:52;;;;;;;4.57;2.53;;;;;19.70;101370.00;;;;5007560;28;20192;-75
2023/07/06 03:49:20;;;;;;;5.75;2.33;;;;;19.80;101374.00;;;;5007882;28;20231;-74
2023/07/06 03:51:47;;;;;;;3.88;2.58;;;;;19.80;101377.00;;;;5005398;28;20207;-74
2023/07/06 03:54:15;;;;;;;4.93;2.67;;;;;19.80;101374.00;;;;5006843;28;20197;-74
2023/07/06 03:56:43;;;;;;;4.60;3.00;;;;;19.80;101378.00;;;;5007024;28;20205;-74
2023/07/06 03:59:10;;;;;;;4.50;2.83;;;;;19.80;101373.00;;;;5006500;28;20209;-75
2023/07/06 04:01:37;;;;;;;4.35;2.38;;;;;19.80;101374.00;;;;5006472;28;20588;-75
2023/07/06 04:04:08;;;;;;;4.85;2.70;;;;;19.80;101382.00;;;;5006198;28;20224;-75
2023/07/06 04:06:40;;;;;;;7.22;2.58;;;;;19.80;101390.00;;;;5008236;28;20192;-74
2023/07/06 04:09:09;;;;;;;5.70;3.08;;;;;19.80;101387.00;;;;5007075;28;20245;-74
2023/07/06 04:11:36;;;;;;;4.10;2.55;;;;;19.80;101391.00;;;;5005284;28;20205;-74
2023/07/06 04:14:04;;;;;;;4.43;2.47;;;;;19.80;101384.00;;;;5006992;28;20209;-74
2023/07/06 04:16:31;;;;;;;2.78;2.13;;;;;19.80;101389.00;;;;4999699;28;20237;-75
2023/07/06 04:18:59;;;;;;;5.10;2.72;;;;;19.80;101380.00;;;;5006636;28;20197;-74
2023/07/06 04:21:28;;;;;;;5.38;2.55;;;;;19.90;101383.00;;;;5006403;28;20252;-75
2023/07/06 04:23:56;;;;;;;4.88;2.78;;;;;19.90;101399.00;;;;5010194;28;20201;-75
2023/07/06 04:26:24;;;;;;;3.85;2.47;;;;;19.90;101393.00;;;;5011074;28;20271;-75
2023/07/06 04:28:51;;;;;;;5.07;2.88;;;;;19.90;101393.00;;;;5009609;28;20224;-74
2023/07/06 04:31:19;;;;;;;8.55;2.90;;;;;20.00;101400.00;;;;5010688;28;20200;-75
2023/07/06 04:33:46;;;;;;;4.53;2.42;;;;;19.90;101395.00;;;;5003722;28;20208;-74
2023/07/06 04:36:15;;;;;;;5.13;2.63;;;;;19.90;101392.00;;;;5009319;28;20201;-74
2023/07/06 04:38:44;;;;;;;4.60;3.05;;;;;19.90;101400.00;;;;5009826;28;20216;-74
2023/07/06 04:41:13;;;;;;;5.13;2.60;;;;;20.00;101398.00;;;;5010867;28;20212;-74
2023/07/06 04:43:40;;;;;;;6.30;2.38;;;;;20.00;101401.00;;;;5011865;28;20205;-74
2023/07/06 04:46:08;;;;;;;5.05;2.63;;;;;20.00;101414.00;;;;5009313;28;20204;-74
2023/07/06 04:48:36;;;;;;;5.05;2.83;;;;;20.00;101412.00;;;;5010748;28;20320;-74
2023/07/06 04:51:03;;;;;;;5.78;3.40;;;;;20.00;101415.00;;;;5006113;28;20205;-75
2023/07/06 04:53:32;;;;;;;7.88;2.88;;;;;20.00;101408.00;;;;5010476;28;20671;-74
2023/07/06 04:56:02;;;;;;;4.68;2.78;;;;;20.00;101415.00;;;;5002143;28;20228;-74
2023/07/06 04:58:30;;;;;;;4.57;2.67;;;;;20.10;101412.00;;;;5009974;28;20208;-74
2023/07/06 05:01:04;;;;;;;7.75;2.85;;;;;20.10;101418.00;;;;5003919;28;20251;-75
2023/07/06 05:03:32;;;;;;;5.53;2.50;;;;;20.10;101419.00;;;;5011509;28;20204;-75
2023/07/06 05:06:03;;;;;;;4.68;2.28;;;;;20.10;101424.00;;;;5010211;28;20197;-75
2023/07/06 05:08:31;;;;;;;6.43;2.88;;;;;20.20;101414.00;;;;5002306;28;20236;-74
2023/07/06 05:11:03;;;;;;;6.63;2.67;;;;;20.20;101424.00;;;;5007439;28;20201;-74
2023/07/06 05:13:31;;;;;;;6.00;2.58;;;;;20.20;101428.00;;;;5004349;28;20226;-74
2023/07/06 05:15:58;;;;;;;6.07;3.35;;;;;20.20;101416.00;;;;5005616;28;20746;-74
2023/07/06 05:18:26;;;;;;;6.60;3.15;;;;;20.30;101418.00;;;;5011580;28;20212;-75
2023/07/06 05:20:56;;;;;;;7.47;3.17;;;;;20.30;101425.00;;;;5007924;28;20216;-75
2023/07/06 05:23:25;;;;;;;8.15;3.35;;;;;20.30;101425.00;;;;5009091;28;20280;-76
2023/07/06 05:25:54;;;;;;;7.03;2.95;;;;;20.30;101422.00;;;;5008109;28;20200;-76
2023/07/06 05:28:23;;;;;;;8.13;3.20;;;;;20.40;101428.00;;;;5007320;28;20228;-75
2023/07/06 05:30:51;;;;;;;6.30;2.65;;;;;20.40;101420.00;;;;5004307;28;20189;-78
2023/07/06 05:33:19;;;;;;;7.20;3.47;;;;;20.40;101427.00;;;;5009505;28;20205;-76
2023/07/06 05:35:48;;;;;;;8.95;3.13;;;;;20.50;101427.00;;;;4999947;28;20194;-75
2023/07/06 05:38:15;;;;;;;6.97;3.00;;;;;20.60;101427.00;;;;5004068;28;20586;-76
2023/07/06 05:40:43;;;;;;;7.30;3.30;;;;;20.60;101429.00;;;;5002043;28;20208;-76
2023/07/06 05:43:11;;;;;;;4.53;3.20;;;;;20.60;101426.00;;;;5001938;28;20223;-76
2023/07/06 05:45:40;;;;;;;6.72;3.33;;;;;20.70;101436.00;;;;5001093;28;20674;-74
2023/07/06 05:48:07;;;;;;;5.28;3.00;;;;;20.80;101443.00;;;;5000501;28;21512;-75
2023/07/06 05:50:34;;;;;;;5.63;3.55;;;;;20.80;101434.00;;;;4999325;28;20208;-75
2023/07/06 05:53:02;;;;;;;6.38;3.38;;;;;20.90;101436.00;;;;5003598;28;20204;-75
2023/07/06 05:55:30;;;;;;;4.68;3.33;;;;;20.90;101438.00;;;;4997158;28;20619;-76
2023/07/06 05:57:58;;;;;;;7.93;3.60;;;;;21.00;101446.00;;;;5001450;28;20201;-76
2023/07/06 06:00:25;;;;;;;7.63;3.08;;;;;21.10;101440.00;;;;5010820;28;20197;-76
2023/07/06 06:02:54;;;;;;;9.93;4.40;;;;;21.10;101444.00;;;;5009139;28;20212;-77
2023/07/06 06:05:21;;;;;;;10.50;3.50;;;;;21.20;101446.00;;;;5005133;28;20288;-76
2023/07/06 06:07:49;;;;;;;8.77;4.88;;;;;21.30;101447.00;;;;5006759;28;20300;-77
2023/07/06 06:10:18;;;;;;;7.22;4.30;;;;;21.30;101458.00;;;;5009847;28;20212;-76
2023/07/06 06:12:45;;;;;;;7.00;3.90;;;;;21.40;101465.00;;;;5008872;28;20212;-76
2023/07/06 06:15:14;;;;;;;11.70;3.85;;;;;21.50;101461.00;;;;5006187;28;20228;-77
2023/07/06 06:17:44;;;;;;;10.93;3.78;;;;;21.50;101465.00;;;;5003492;28;20200;-77
2023/07/06 06:20:13;;;;;;;12.00;4.13;;;;;21.60;101468.00;;;;5000964;28;20196;-77
2023/07/06 06:22:41;;;;;;;6.70;3.95;;;;;21.60;101478.00;;;;4997217;28;20210;-77
2023/07/06 06:25:09;;;;;;;9.70;3.85;;;;;21.70;101479.00;;;;5002047;28;21003;-77
2023/07/06 06:27:36;;;;;;;8.43;4.65;;;;;21.70;101481.00;;;;5008009;28;20671;-78
2023/07/06 06:30:05;;;;;;;7.10;4.05;;;;;21.70;101491.00;;;;5008983;28;20225;-77
2023/07/06 06:32:34;;;;;;;8.50;4.90;;;;;21.70;101488.00;;;;5008167;28;20259;-77
2023/07/06 06:35:02;;;;;;;8.77;4.55;;;;;21.70;101494.00;;;;5007508;28;20233;-77
2023/07/06 06:37:31;;;;;;;11.50;4.88;;;;;21.80;101496.00;;;;5006099;28;20228;-77
2023/07/06 06:39:59;;;;;;;7.50;4.45;;;;;21.80;101495.00;;;;5007935;28;20659;-77
2023/07/06 06:42:28;;;;;;;8.07;5.57;;;;;21.80;101500.00;;;;5009417;28;20213;-77
2023/07/06 06:44:57;;;;;;;9.70;4.80;;;;;21.90;101502.00;;;;5006498;28;20193;-77
2023/07/06 06:47:25;;;;;;;6.05;3.88;;;;;21.90;101505.00;;;;5004350;28;20228;-77
2023/07/06 06:49:52;;;;;;;12.77;5.38;;;;;22.00;101503.00;;;;4994500;28;20216;-78
2023/07/06 06:52:20;;;;;;;9.18;5.07;;;;;22.00;101509.00;;;;5009663;28;20201;-77
2023/07/06 06:54:50;;;;;;;6.55;4.13;;;;;22.00;101507.00;;;;5010013;28;20696;-77
2023/07/06 06:57:17;;;;;;;8.60;5.25;;;;;22.10;101505.00;;;;5008986;28;20251;-77
2023/07/06 06:59:47;;;;;;;11.90;5.05;;;;;22.10;101514.00;;;;5008283;28;20715;-77
2023/07/06 07:02:15;;;;;;;7.40;5.50;;;;;22.20;101514.00;;;;5008118;28;20208;-76
2023/07/06 07:04:42;;;;;;;10.82;5.78;;;;;22.20;101516.00;;;;5006226;28;20201;-77
2023/07/06 07:07:10;;;;;;;14.05;5.75;;;;;22.30;101520.00;;;;4999213;28;20293;-78
2023/07/06 07:09:38;;;;;;;11.32;6.10;;;;;22.30;101522.00;;;;4994281;28;20283;-78
2023/07/06 07:12:08;;;;;;;12.38;6.30;;;;;22.30;101531.00;;;;5007635;28;20208;-77
2023/07/06 07:14:35;;;;;;;9.13;6.70;;;;;22.30;101529.00;;;;5007871;28;20612;-76
2023/07/06 07:17:03;;;;;;;8.35;6.28;;;;;22.30;101523.00;;;;5007021;28;20197;-76
2023/07/06 07:19:30;;;;;;;14.63;6.47;;;;;22.40;101523.00;;;;5006804;28;20240;-77
2023/07/06 07:22:00;;;;;;;9.07;6.13;;;;;22.40;101523.00;;;;5007244;28;20192;-77
2023/07/06 07:24:30;;;;;;;9.80;5.75;;;;;22.40;101533.00;;;;5007967;28;20205;-77
2023/07/06 07:26:58;;;;;;;11.00;6.25;;;;;22.50;101529.00;;;;5007770;28;20201;-78
2023/07/06 07:29:26;;;;;;;12.77;6.30;;;;;22.50;101537.00;;;;5008998;28;20209;-77
2023/07/06 07:31:54;;;;;;;8.20;5.93;;;;;22.50;101540.00;;;;5006707;28;20197;-77
2023/07/06 07:34:21;;;;;;;8.65;5.07;;;;;22.60;101540.00;;;;5008346;28;20208;-77
2023/07/06 07:36:50;;;;;;;11.50;6.00;;;;;22.70;101536.00;;;;5001972;28;20197;-78
2023/07/06 07:39:18;;;;;;;8.13;5.57;;;;;22.80;101540.00;;;;5007565;28;20197;-80
2023/07/06 07:41:45;;;;;;;9.27;5.28;;;;;22.80;101542.00;;;;4997959;28;20196;-77
2023/07/06 07:44:14;;;;;;;9.43;5.32;;;;;22.90;101539.00;;;;5006450;28;20960;-77
2023/07/06 07:46:43;;;;;;;10.75;5.50;;;;;22.90;101542.00;;;;5005443;28;20297;-78
2023/07/06 07:49:11;;;;;;;8.55;5.65;;;;;23.00;101550.00;;;;5006002;28;20983;-77
2023/07/06 07:51:39;;;;;;;9.55;5.93;;;;;23.10;101542.00;;;;5004877;28;20570;-79
2023/07/06 07:54:06;;;;;;;7.45;4.93;;;;;23.10;101541.00;;;;5002732;28;20717;-78
2023/07/06 07:56:34;;;;;;;6.60;4.97;;;;;23.20;101541.00;;;;5005033;28;20201;-78
2023/07/06 07:59:01;;;;;;;9.40;5.90;;;;;23.30;101548.00;;;;5005856;28;20201;-77
2023/07/06 08:01:30;;;;;;;8.07;5.57;;;;;23.40;101550.00;;;;5006754;28;20570;-78
2023/07/06 08:03:58;;;;;;;8.30;5.22;;;;;23.40;101546.00;;;;5007939;28;20209;-78
2023/07/06 08:06:26;;;;;;;9.00;6.15;;;;;23.50;101541.00;;;;5006422;28;20281;-78
2023/07/06 08:08:53;;;;;;;9.65;5.60;;;;;23.70;101542.00;;;;5007531;28;20240;-78
2023/07/06 08:11:22;;;;;;;8.25;4.82;;;;;23.80;101546.00;;;;5008374;28;20201;-78
2023/07/06 08:13:51;;;;;;;8.25;5.20;;;;;23.90;101554.00;;;;5002375;28;20717;-79
2023/07/06 08:16:19;;;;;;;10.10;5.05;;;;;24.10;101555.00;;;;5003343;28;20197;-78
2023/07/06 08:18:48;;;;;;;5.40;4.68;;;;;24.10;101559.00;;;;5008186;28;20250;-78
2023/07/06 08:21:17;;;;;;;6.38;5.13;;;;;24.20;101559.00;;;;5004738;28;20263;-79
2023/07/06 08:23:49;;;;;;;6.57;4.30;;;;;24.30;101570.00;;;;5007306;28;20197;-78
2023/07/06 08:26:17;;;;;;;5.20;3.70;;;;;24.40;101567.00;;;;5007763;28;20204;-79
2023/07/06 08:28:46;;;;;;;5.80;4.15;;;;;24.40;101574.00;;;;5005805;28;20559;-78
2023/07/06 08:31:14;;;;;;;5.50;3.70;;;;;24.50;101572.00;;;;5002043;28;20204;-78
2023/07/06 08:33:42;;;;;;;5.93;3.97;;;;;24.60;101567.00;;;;5002865;28;20208;-78
2023/07/06 08:36:09;;;;;;;7.72;3.97;;;;;24.60;101583.00;;;;5004071;28;20209;-78
2023/07/06 08:38:38;;;;;;;5.10;3.67;;;;;24.60;101579.00;;;;5007106;28;20997;-77
2023/07/06 08:41:13;;;;;;;6.65;3.60;;;;;24.60;101581.00;;;;5005977;28;20197;-78
2023/07/06 08:43:41;;;;;;;7.70;3.80;;;;;24.70;101578.00;;;;4988687;28;20197;-78
2023/07/06 08:46:12;;;;;;;3.50;2.80;;;;;24.80;101572.00;;;;5001489;28;20255;-78
2023/07/06 08:48:41;;;;;;;10.45;4.80;;;;;24.90;101584.00;;;;4996181;28;20213;-79
2023/07/06 08:51:19;;;;;;;4.72;4.05;;;;;24.90;101581.00;;;;5001774;28;20633;-78
2023/07/06 08:53:53;;;;;;;5.95;3.53;;;;;24.90;101580.00;;;;5006980;28;20212;-79
2023/07/06 08:56:24;;;;;;;8.75;4.50;;;;;24.90;101585.00;;;;5003539;28;20236;-79
2023/07/06 08:58:52;;;;;;;7.82;3.75;;;;;25.00;101589.00;;;;5006184;28;20209;-78
2023/07/06 09:01:22;;;;;;;8.90;5.30;;;;;25.00;101594.00;;;;5003696;28;20198;-78
2023/07/06 09:03:55;;;;;;;6.60;4.18;;;;;25.00;101592.00;;;;4990944;28;20679;-78
2023/07/06 09:06:26;;;;;;;7.45;4.35;;;;;25.10;101590.00;;;;4994346;28;20205;-78
2023/07/06 09:08:56;;;;;;;7.28;4.60;;;;;25.10;101593.00;;;;5009028;28;20314;-78
2023/07/06 09:11:24;;;;;;;6.10;4.60;;;;;25.20;101606.00;;;;5011126;28;20200;-79
2023/07/06 09:13:54;;;;;;;5.80;4.10;;;;;25.30;101601.00;;;;5010908;28;20221;-77
2023/07/06 09:16:22;;;;;;;7.22;5.13;;;;;25.30;101606.00;;;;5010843;28;20193;-78
2023/07/06 09:18:50;;;;;;;5.78;4.60;;;;;25.30;101605.00;;;;5005957;28;20686;-79
2023/07/06 09:21:22;;;;;;;6.95;4.78;;;;;25.40;101609.00;;;;5009687;28;20208;-78
2023/07/06 09:23:49;;;;;;;6.95;4.20;;;;;25.50;101600.00;;;;5009512;28;20204;-78
2023/07/06 09:26:23;;;;;;;10.35;5.43;;;;;25.50;101599.00;;;;5009852;28;20217;-79
2023/07/06 09:29:04;;;;;;;7.05;5.05;;;;;25.70;101603.00;;;;5011218;28;20205;-78
2023/07/06 09:31:32;;;;;;;7.07;5.50;;;;;25.80;101597.00;;;;5010699;28;20208;-78
2023/07/06 09:33:59;;;;;;;8.05;4.47;;;;;25.90;101605.00;;;;5010296;28;20193;-78
2023/07/06 09:36:28;;;;;;;4.97;3.72;;;;;26.00;101603.00;;;;5008291;28;20201;-78
2023/07/06 09:39:04;;;;;;;5.93;3.45;;;;;26.00;101605.00;;;;5007112;28;20193;-80
2023/07/06 09:41:32;;;;;;;4.05;3.25;;;;;26.10;101608.00;;;;5000965;28;20225;-78
2023/07/06 09:44:03;;;;;;;5.70;3.92;;;;;26.10;101607.00;;;;5008704;28;20201;-78
2023/07/06 09:46:37;;;;;;;6.65;3.08;;;;;26.10;101598.00;;;;5001156;28;20207;-77
2023/07/06 09:49:14;;;;;;;5.30;3.33;;;;;26.20;101591.00;;;;5007708;28;20197;-78
2023/07/06 09:51:45;;;;;;;5.07;3.22;;;;;26.30;101602.00;;;;5005501;28;20558;-77
2023/07/06 09:54:17;;;;;;;6.70;3.17;;;;;26.40;101600.00;;;;5008248;28;20200;-77
2023/07/06 09:56:47;;;;;;;6.30;3.03;;;;;26.50;101614.00;;;;5008588;28;20205;-78
2023/07/06 09:59:15;;;;;;;3.17;2.63;;;;;26.50;101603.00;;;;5007516;28;20201;-78
2023/07/06 10:01:49;;;;;;;5.63;3.17;;;;;26.50;101616.00;;;;5009405;28;20300;-79
2023/07/06 10:04:39;;;;;;;4.75;3.42;;;;;26.40;101608.00;;;;5010059;28;20208;-78
2023/07/06 10:07:14;;;;;;;5.85;3.45;;;;;26.50;101605.00;;;;5006877;28;20208;-78
2023/07/06 10:09:45;;;;;;;7.95;5.10;;;;;26.60;101614.00;;;;5006180;28;20228;-77
2023/07/06 10:12:20;;;;;;;7.55;3.85;;;;;26.50;101609.00;;;;5007888;28;20200;-77
2023/07/06 10:14:51;;;;;;;6.25;2.80;;;;;26.50;101614.00;;;;4993285;28;20196;-78
2023/07/06 10:17:35;;;;;;;5.25;3.15;;;;;26.40;101602.00;;;;5004479;28;20202;-78
2023/07/06 10:20:13;;;;;;;4.75;3.17;;;;;26.50;101601.00;;;;5006310;28;20201;-77
2023/07/06 10:22:52;;;;;;;4.45;3.03;;;;;26.40;101605.00;;;;4999006;28;20216;-78
2023/07/06 10:25:26;;;;;;;4.43;2.58;;;;;26.40;101603.00;;;;5002317;28;20224;-78
2023/07/06 10:28:11;;;;;;;4.80;2.70;;;;;26.20;101600.00;;;;5009343;28;20204;-77
2023/07/06 10:30:45;;;;;;;7.78;3.47;;;;;26.30;101597.00;;;;5003458;28;20233;-77
2023/07/06 10:33:22;;;;;;;3.78;2.47;;;;;26.20;101600.00;;;;5007745;28;20200;-78
2023/07/06 10:35:52;;;;;;;3.33;2.40;;;;;26.10;101604.00;;;;5007637;28;20208;-76
2023/07/06 10:38:20;;;;;;;6.22;2.78;;;;;26.00;101606.00;;;;5011308;28;20209;-77
2023/07/06 10:40:52;;;;;;;3.33;2.80;;;;;25.90;101620.00;;;;5005873;28;20197;-77
2023/07/06 10:43:23;;;;;;;5.13;2.97;;;;;25.90;101622.00;;;;4999298;28;20255;-78
2023/07/06 10:45:52;;;;;;;4.10;2.42;;;;;25.80;101626.00;;;;4999098;28;20200;-78
2023/07/06 10:48:32;;;;;;;10.07;2.75;;;;;25.60;101625.00;;;;4999362;28;20283;-78
2023/07/06 10:51:22;;;;;;;4.50;2.67;;;;;25.50;101625.00;;;;4994203;28;20315;-78
2023/07/06 10:54:03;;;;;;;3.78;2.80;;;;;25.50;101628.00;;;;4999336;28;20208;-78
2023/07/06 10:56:35;;;;;;;3.90;2.38;;;;;25.50;101633.00;;;;5002771;28;20204;-77
2023/07/06 10:59:04;;;;;;;3.95;2.25;;;;;25.40;101635.00;;;;4998995;28;20710;-78
2023/07/06 11:01:37;;;;;;;4.15;2.22;;;;;25.30;101633.00;;;;5001241;28;20583;-77
2023/07/06 11:04:43;;;;;;;6.00;2.30;;;;;25.10;101637.00;;;;4996433;28;20201;-77
2023/07/06 11:07:13;;;;;;;4.45;2.15;;;;;25.30;101637.00;;;;5005183;28;20623;-78
2023/07/06 11:09:49;;;;;;;2.45;1.95;;;;;25.10;101639.00;;;;5004687;28;20229;-78
2023/07/06 11:12:19;;;;;;;6.50;2.60;;;;;25.20;101642.00;;;;5005172;28;20201;-78
2023/07/06 11:14:50;;;;;;;2.45;1.85;;;;;25.20;101641.00;;;;5007766;28;20209;-77
2023/07/06 11:17:31;;;;;;;10.00;3.17;;;;;25.10;101643.00;;;;5006217;28;20193;-77
2023/07/06 11:20:04;;;;;;;3.10;2.35;;;;;25.10;101644.00;;;;5005492;28;20678;-77
2023/07/06 11:22:33;;;;;;;6.13;2.38;;;;;25.10;101651.00;;;;5003499;28;20270;-78
2023/07/06 11:25:05;;;;;;;4.10;2.47;;;;;25.10;101648.00;;;;5008010;28;20213;-79
2023/07/06 11:27:36;;;;;;;4.43;2.53;;;;;25.10;101659.00;;;;5007896;28;20726;-79
2023/07/06 11:30:13;;;;;;;3.60;1.90;;;;;25.10;101653.00;;;;5006068;28;20231;-78
2023/07/06 11:33:01;;;;;;;3.65;1.92;;;;;25.10;101651.00;;;;5008992;28;20227;-78
2023/07/06 11:35:38;;;;;;;3.28;1.85;;;;;25.00;101659.00;;;;5008643;28;20288;-78
2023/07/06 11:38:17;;;;;;;3.05;1.58;;;;;25.00;101656.00;;;;5002099;28;20198;-77
2023/07/06 11:41:06;;;;;;;6.32;1.90;;;;;24.90;101657.00;;;;4999742;28;20208;-77
2023/07/06 11:43:57;;;;;;;3.67;1.33;;;;;25.00;101668.00;;;;5009114;28;20196;-77
2023/07/06 11:46:37;;;;;;;3.85;1.88;;;;;25.00;101665.00;;;;5007112;28;20673;-77
2023/07/06 11:49:28;;;;;;;2.03;1.38;;;;;25.00;101668.00;;;;5007272;28;20287;-76
2023/07/06 11:51:58;;;;;;;2.17;1.30;;;;;25.10;101657.00;;;;5000583;28;20225;-76
2023/07/06 11:54:43;;;;;;;2.22;1.10;;;;;25.10;101663.00;;;;5006409;28;20216;-77
2023/07/06 11:57:25;;;;;;;1.85;1.20;;;;;25.10;101666.00;;;;4988956;28;20209;-78
2023/07/06 12:00:16;;;;;;;2.58;1.02;;;;;25.20;101662.00;;;;4994227;28;20205;-78
2023/07/06 12:02:49;;;;;;;4.38;1.40;;;;;25.20;101661.00;;;;5007116;28;20213;-78
2023/07/06 12:05:26;;;;;;;6.57;1.02;;;;;25.20;101653.00;;;;5005205;28;20701;-79
2023/07/06 12:08:01;;;;;;;2.38;1.17;;;;;25.30;101658.00;;;;5008220;28;20201;-78
2023/07/06 12:10:31;;;;;;;1.67;1.00;;;;;25.40;101654.00;;;;5006754;28;20223;-81
2023/07/06 12:12:58;;;;;;;1.35;0.90;;;;;25.50;101646.00;;;;4996991;28;20213;-79
2023/07/06 12:15:26;;;;;;;2.15;1.23;;;;;25.50;101643.00;;;;4997461;28;20212;-79
2023/07/06 12:17:56;;;;;;;2.42;0.93;;;;;25.60;101641.00;;;;5007917;28;20200;-80
2023/07/06 12:20:25;;;;;;;1.70;0.82;;;;;25.70;101647.00;;;;5008289;28;20197;-79
2023/07/06 12:22:56;;;;;;;0.82;0.70;;;;;25.70;101657.00;;;;5006406;28;20205;-80
2023/07/06 12:25:27;;;;;;;2.05;1.20;;;;;25.80;101656.00;;;;5008159;28;20583;-80